sensor_id;sensor_type;location;lat;lon;timestamp;temperature;humidity
21508;DHT22;10915;54.352;9.074;2023-03-23T00:01:15;10.90;99.90
21508;DHT22;10915;54.352;9.074;2023-03-23T00:03:46;11.00;99.90
21508;DHT22;10915;54.352;9.074;2023-03-23T00:06:12;11.00;99.90
21508;DHT22;10915;54.352;9.074;2023-03-23T00:08:44;11.00;99.90
21508;DHT22;10915;54.352;9.074;2023-03-23T00:11:14;11.00;99.90
21508;DHT22;10915;54.352;9.074;2023-03-23T00:13:40;10.90;99.90
21508;DHT22;10915;54.352;9.074;2023-03-23T00:16:08;10.90;99.90
21508;DHT22;10915;54.352;9.074;2023-03-23T00:18:47;10.90;99.90
21508;DHT22;10915;54.352;9.074;2023-03-23T00:21:15;10.90;99.90
21508;DHT22;10915;54.352;9.074;2023-03-23T00:23:41;10.80;99.90
21508;DHT22;10915;54.352;9.074;2023-03-23T00:26:10;10.90;99.90
21508;DHT22;10915;54.352;9.074;2023-03-23T00:28:36;10.80;99.90
21508;DHT22;10915;54.352;9.074;2023-03-23T00:31:06;10.80;99.90
21508;DHT22;10915;54.352;9.074;2023-03-23T00:33:33;10.70;99.90
21508;DHT22;10915;54.352;9.074;2023-03-23T00:36:08;10.70;99.90
21508;DHT22;10915;54.352;9.074;2023-03-23T00:38:35;10.70;99.90
21508;DHT22;10915;54.352;9.074;2023-03-23T00:41:01;10.60;99.90
21508;DHT22;10915;54.352;9.074;2023-03-23T00:43:28;10.60;99.90
21508;DHT22;10915;54.352;9.074;2023-03-23T00:45:55;10.60;99.90
21508;DHT22;10915;54.352;9.074;2023-03-23T00:48:24;10.50;99.90
21508;DHT22;10915;54.352;9.074;2023-03-23T00:50:51;10.50;99.90
21508;DHT22;10915;54.352;9.074;2023-03-23T00:53:18;10.40;99.90
21508;DHT22;10915;54.352;9.074;2023-03-23T00:55:45;10.40;99.90
21508;DHT22;10915;54.352;9.074;2023-03-23T00:58:12;10.40;99.90
21508;DHT22;10915;54.352;9.074;2023-03-23T01:00:39;10.30;99.90
21508;DHT22;10915;54.352;9.074;2023-03-23T01:03:06;10.20;99.90
21508;DHT22;10915;54.352;9.074;2023-03-23T01:05:36;10.20;99.90
21508;DHT22;10915;54.352;9.074;2023-03-23T01:08:03;10.20;99.90
21508;DHT22;10915;54.352;9.074;2023-03-23T01:10:30;10.20;99.90
21508;DHT22;10915;54.352;9.074;2023-03-23T01:12:59;10.10;99.90
21508;DHT22;10915;54.352;9.074;2023-03-23T01:15:26;10.10;99.90
21508;DHT22;10915;54.352;9.074;2023-03-23T01:17:52;10.00;99.90
21508;DHT22;10915;54.352;9.074;2023-03-23T01:20:18;10.00;99.90
21508;DHT22;10915;54.352;9.074;2023-03-23T01:22:43;10.00;99.90
21508;DHT22;10915;54.352;9.074;2023-03-23T01:25:11;10.00;99.90
21508;DHT22;10915;54.352;9.074;2023-03-23T01:27:37;10.00;99.90
21508;DHT22;10915;54.352;9.074;2023-03-23T01:30:04;10.00;99.90
21508;DHT22;10915;54.352;9.074;2023-03-23T01:32:31;10.00;99.90
21508;DHT22;10915;54.352;9.074;2023-03-23T01:34:57;9.90;99.90
21508;DHT22;10915;54.352;9.074;2023-03-23T01:37:22;9.90;99.90
21508;DHT22;10915;54.352;9.074;2023-03-23T01:39:56;9.90;99.90
21508;DHT22;10915;54.352;9.074;2023-03-23T01:42:23;9.90;99.90
21508;DHT22;10915;54.352;9.074;2023-03-23T01:47:15;9.80;99.90
21508;DHT22;10915;54.352;9.074;2023-03-23T01:49:44;9.80;99.90
21508;DHT22;10915;54.352;9.074;2023-03-23T01:52:20;9.80;99.90
21508;DHT22;10915;54.352;9.074;2023-03-23T01:54:47;9.80;99.90
21508;DHT22;10915;54.352;9.074;2023-03-23T01:57:15;9.70;99.90
21508;DHT22;10915;54.352;9.074;2023-03-23T01:59:44;9.70;99.90
21508;DHT22;10915;54.352;9.074;2023-03-23T02:02:12;9.80;99.90
21508;DHT22;10915;54.352;9.074;2023-03-23T02:04:38;9.80;99.90
21508;DHT22;10915;54.352;9.074;2023-03-23T02:07:07;9.80;99.90
21508;DHT22;10915;54.352;9.074;2023-03-23T02:09:33;9.80;99.90
21508;DHT22;10915;54.352;9.074;2023-03-23T02:11:58;9.80;99.90
21508;DHT22;10915;54.352;9.074;2023-03-23T02:14:26;9.80;99.90
21508;DHT22;10915;54.352;9.074;2023-03-23T02:17:07;9.80;99.90
21508;DHT22;10915;54.352;9.074;2023-03-23T02:35:50;9.70;99.90
21508;DHT22;10915;54.352;9.074;2023-03-23T02:38:24;9.70;99.90
21508;DHT22;10915;54.352;9.074;2023-03-23T02:40:53;9.60;99.90
21508;DHT22;10915;54.352;9.074;2023-03-23T02:43:22;9.60;99.90
21508;DHT22;10915;54.352;9.074;2023-03-23T02:45:50;9.50;99.90
21508;DHT22;10915;54.352;9.074;2023-03-23T02:48:18;9.40;99.90
21508;DHT22;10915;54.352;9.074;2023-03-23T02:50:47;9.40;99.90
21508;DHT22;10915;54.352;9.074;2023-03-23T02:53:18;9.30;99.90
21508;DHT22;10915;54.352;9.074;2023-03-23T02:55:46;9.20;99.90
21508;DHT22;10915;54.352;9.074;2023-03-23T02:58:14;9.10;99.90
21508;DHT22;10915;54.352;9.074;2023-03-23T03:00:40;9.10;99.90
21508;DHT22;10915;54.352;9.074;2023-03-23T03:03:10;9.20;99.90
21508;DHT22;10915;54.352;9.074;2023-03-23T03:05:54;9.10;99.90
21508;DHT22;10915;54.352;9.074;2023-03-23T03:08:41;9.10;99.90
21508;DHT22;10915;54.352;9.074;2023-03-23T03:11:13;9.10;99.90
21508;DHT22;10915;54.352;9.074;2023-03-23T03:14:01;9.20;99.90
21508;DHT22;10915;54.352;9.074;2023-03-23T03:16:45;9.10;99.90
21508;DHT22;10915;54.352;9.074;2023-03-23T03:19:17;9.10;99.90
21508;DHT22;10915;54.352;9.074;2023-03-23T03:21:46;9.10;99.90
21508;DHT22;10915;54.352;9.074;2023-03-23T03:24:16;9.10;99.90
21508;DHT22;10915;54.352;9.074;2023-03-23T03:26:46;9.10;99.90
21508;DHT22;10915;54.352;9.074;2023-03-23T03:29:18;9.10;99.90
21508;DHT22;10915;54.352;9.074;2023-03-23T03:31:45;9.10;99.90
21508;DHT22;10915;54.352;9.074;2023-03-23T03:34:12;9.10;99.90
21508;DHT22;10915;54.352;9.074;2023-03-23T03:36:43;9.10;99.90
21508;DHT22;10915;54.352;9.074;2023-03-23T03:39:11;9.10;99.90
21508;DHT22;10915;54.352;9.074;2023-03-23T03:41:38;9.10;99.90
21508;DHT22;10915;54.352;9.074;2023-03-23T03:44:05;9.10;99.90
21508;DHT22;10915;54.352;9.074;2023-03-23T03:46:32;9.10;99.90
21508;DHT22;10915;54.352;9.074;2023-03-23T03:48:59;9.20;99.90
21508;DHT22;10915;54.352;9.074;2023-03-23T03:51:26;9.10;99.90
21508;DHT22;10915;54.352;9.074;2023-03-23T03:53:53;9.10;99.90
21508;DHT22;10915;54.352;9.074;2023-03-23T03:56:19;9.10;99.90
21508;DHT22;10915;54.352;9.074;2023-03-23T03:58:45;9.10;99.90
21508;DHT22;10915;54.352;9.074;2023-03-23T04:01:14;9.10;99.90
21508;DHT22;10915;54.352;9.074;2023-03-23T04:03:41;9.10;99.90
21508;DHT22;10915;54.352;9.074;2023-03-23T04:06:07;9.00;99.90
21508;DHT22;10915;54.352;9.074;2023-03-23T04:08:33;9.00;99.90
21508;DHT22;10915;54.352;9.074;2023-03-23T04:10:59;9.00;99.90
21508;DHT22;10915;54.352;9.074;2023-03-23T04:13:25;9.00;99.90
21508;DHT22;10915;54.352;9.074;2023-03-23T04:15:51;9.10;99.90
21508;DHT22;10915;54.352;9.074;2023-03-23T04:18:17;9.10;99.90
21508;DHT22;10915;54.352;9.074;2023-03-23T04:20:44;9.10;99.90
21508;DHT22;10915;54.352;9.074;2023-03-23T04:23:15;9.10;99.90
21508;DHT22;10915;54.352;9.074;2023-03-23T04:25:54;9.10;99.90
21508;DHT22;10915;54.352;9.074;2023-03-23T04:28:23;9.20;99.90
21508;DHT22;10915;54.352;9.074;2023-03-23T04:30:52;9.30;99.90
21508;DHT22;10915;54.352;9.074;2023-03-23T04:33:23;9.40;99.90
21508;DHT22;10915;54.352;9.074;2023-03-23T04:35:51;9.50;99.90
21508;DHT22;10915;54.352;9.074;2023-03-23T04:38:17;9.50;99.90
21508;DHT22;10915;54.352;9.074;2023-03-23T04:40:48;9.50;99.90
21508;DHT22;10915;54.352;9.074;2023-03-23T04:43:17;9.40;99.90
21508;DHT22;10915;54.352;9.074;2023-03-23T04:45:47;9.40;99.90
21508;DHT22;10915;54.352;9.074;2023-03-23T04:48:12;9.50;99.90
21508;DHT22;10915;54.352;9.074;2023-03-23T04:50:39;9.50;99.90
21508;DHT22;10915;54.352;9.074;2023-03-23T04:53:05;9.50;99.90
21508;DHT22;10915;54.352;9.074;2023-03-23T04:55:32;9.50;99.90
21508;DHT22;10915;54.352;9.074;2023-03-23T04:58:04;9.60;99.90
21508;DHT22;10915;54.352;9.074;2023-03-23T05:00:34;9.60;99.90
21508;DHT22;10915;54.352;9.074;2023-03-23T05:03:00;9.70;99.90
21508;DHT22;10915;54.352;9.074;2023-03-23T05:05:27;9.70;99.90
21508;DHT22;10915;54.352;9.074;2023-03-23T05:07:55;9.80;99.90
21508;DHT22;10915;54.352;9.074;2023-03-23T05:10:20;9.90;99.90
21508;DHT22;10915;54.352;9.074;2023-03-23T05:12:46;9.90;99.90
21508;DHT22;10915;54.352;9.074;2023-03-23T05:15:13;9.90;99.90
21508;DHT22;10915;54.352;9.074;2023-03-23T05:17:39;10.00;99.90
21508;DHT22;10915;54.352;9.074;2023-03-23T05:20:11;10.00;99.90
21508;DHT22;10915;54.352;9.074;2023-03-23T05:22:38;10.00;99.90
21508;DHT22;10915;54.352;9.074;2023-03-23T05:25:05;10.00;99.90
21508;DHT22;10915;54.352;9.074;2023-03-23T05:27:34;10.00;99.90
21508;DHT22;10915;54.352;9.074;2023-03-23T05:30:00;10.00;99.90
21508;DHT22;10915;54.352;9.074;2023-03-23T05:32:27;10.00;99.90
21508;DHT22;10915;54.352;9.074;2023-03-23T05:34:59;10.00;99.90
21508;DHT22;10915;54.352;9.074;2023-03-23T05:37:27;10.10;99.90
21508;DHT22;10915;54.352;9.074;2023-03-23T05:39:59;10.10;99.90
21508;DHT22;10915;54.352;9.074;2023-03-23T05:42:31;10.10;99.90
21508;DHT22;10915;54.352;9.074;2023-03-23T05:44:56;10.10;99.90
21508;DHT22;10915;54.352;9.074;2023-03-23T05:47:23;10.10;99.90
21508;DHT22;10915;54.352;9.074;2023-03-23T05:49:49;10.20;99.90
21508;DHT22;10915;54.352;9.074;2023-03-23T05:52:14;10.30;99.90
21508;DHT22;10915;54.352;9.074;2023-03-23T05:54:40;10.40;99.90
21508;DHT22;10915;54.352;9.074;2023-03-23T05:57:06;10.50;99.90
21508;DHT22;10915;54.352;9.074;2023-03-23T05:59:34;10.50;99.90
21508;DHT22;10915;54.352;9.074;2023-03-23T06:02:00;10.60;99.90
21508;DHT22;10915;54.352;9.074;2023-03-23T06:04:26;10.60;99.90
21508;DHT22;10915;54.352;9.074;2023-03-23T06:06:52;10.60;99.90
21508;DHT22;10915;54.352;9.074;2023-03-23T06:09:18;10.70;99.90
21508;DHT22;10915;54.352;9.074;2023-03-23T06:11:45;10.70;99.90
21508;DHT22;10915;54.352;9.074;2023-03-23T06:14:10;10.70;99.90
21508;DHT22;10915;54.352;9.074;2023-03-23T06:16:37;10.70;99.90
21508;DHT22;10915;54.352;9.074;2023-03-23T06:19:03;10.80;99.90
21508;DHT22;10915;54.352;9.074;2023-03-23T06:21:30;10.80;99.90
21508;DHT22;10915;54.352;9.074;2023-03-23T06:23:56;10.80;99.90
21508;DHT22;10915;54.352;9.074;2023-03-23T06:26:25;10.70;99.90
21508;DHT22;10915;54.352;9.074;2023-03-23T06:28:51;10.80;99.90
21508;DHT22;10915;54.352;9.074;2023-03-23T06:31:16;10.80;99.90
21508;DHT22;10915;54.352;9.074;2023-03-23T06:33:45;10.80;99.90
21508;DHT22;10915;54.352;9.074;2023-03-23T06:36:10;10.80;99.90
21508;DHT22;10915;54.352;9.074;2023-03-23T06:38:37;10.80;99.90
21508;DHT22;10915;54.352;9.074;2023-03-23T06:41:03;10.80;99.90
21508;DHT22;10915;54.352;9.074;2023-03-23T06:43:28;10.80;99.90
21508;DHT22;10915;54.352;9.074;2023-03-23T06:45:54;10.80;99.90
21508;DHT22;10915;54.352;9.074;2023-03-23T06:48:20;10.80;99.90
21508;DHT22;10915;54.352;9.074;2023-03-23T06:50:46;10.80;99.90
21508;DHT22;10915;54.352;9.074;2023-03-23T06:53:12;10.80;99.90
21508;DHT22;10915;54.352;9.074;2023-03-23T06:55:38;10.80;99.90
21508;DHT22;10915;54.352;9.074;2023-03-23T06:58:05;10.90;99.90
21508;DHT22;10915;54.352;9.074;2023-03-23T07:00:32;10.90;99.90
21508;DHT22;10915;54.352;9.074;2023-03-23T07:02:58;11.00;99.90
21508;DHT22;10915;54.352;9.074;2023-03-23T07:05:23;11.00;99.90
21508;DHT22;10915;54.352;9.074;2023-03-23T07:07:50;10.90;99.90
21508;DHT22;10915;54.352;9.074;2023-03-23T07:10:16;11.00;99.90
21508;DHT22;10915;54.352;9.074;2023-03-23T07:12:41;11.00;99.90
21508;DHT22;10915;54.352;9.074;2023-03-23T07:15:08;10.90;99.90
21508;DHT22;10915;54.352;9.074;2023-03-23T07:20:10;10.90;99.90
21508;DHT22;10915;54.352;9.074;2023-03-23T07:22:36;11.00;99.90
21508;DHT22;10915;54.352;9.074;2023-03-23T07:25:04;11.00;99.90
21508;DHT22;10915;54.352;9.074;2023-03-23T07:27:30;11.00;99.90
21508;DHT22;10915;54.352;9.074;2023-03-23T07:29:56;11.00;99.90
21508;DHT22;10915;54.352;9.074;2023-03-23T07:32:23;11.00;99.90
21508;DHT22;10915;54.352;9.074;2023-03-23T07:34:49;11.00;99.90
21508;DHT22;10915;54.352;9.074;2023-03-23T07:37:15;11.00;99.90
21508;DHT22;10915;54.352;9.074;2023-03-23T07:39:42;11.00;99.90
21508;DHT22;10915;54.352;9.074;2023-03-23T07:42:08;11.00;99.90
21508;DHT22;10915;54.352;9.074;2023-03-23T07:44:34;11.10;99.90
21508;DHT22;10915;54.352;9.074;2023-03-23T07:46:59;11.10;99.90
21508;DHT22;10915;54.352;9.074;2023-03-23T07:49:25;11.00;99.90
21508;DHT22;10915;54.352;9.074;2023-03-23T07:51:52;11.10;99.90
21508;DHT22;10915;54.352;9.074;2023-03-23T07:54:17;11.30;99.90
21508;DHT22;10915;54.352;9.074;2023-03-23T07:56:43;11.60;99.90
21508;DHT22;10915;54.352;9.074;2023-03-23T07:59:11;11.90;99.90
21508;DHT22;10915;54.352;9.074;2023-03-23T08:01:38;12.30;99.90
21508;DHT22;10915;54.352;9.074;2023-03-23T08:04:04;12.40;99.90
21508;DHT22;10915;54.352;9.074;2023-03-23T08:06:32;12.60;99.90
21508;DHT22;10915;54.352;9.074;2023-03-23T08:08:58;12.80;99.90
21508;DHT22;10915;54.352;9.074;2023-03-23T08:11:25;13.00;99.90
21508;DHT22;10915;54.352;9.074;2023-03-23T08:13:51;13.10;99.90
21508;DHT22;10915;54.352;9.074;2023-03-23T08:16:17;13.30;99.90
21508;DHT22;10915;54.352;9.074;2023-03-23T08:18:45;13.20;99.90
21508;DHT22;10915;54.352;9.074;2023-03-23T08:21:12;13.30;99.90
21508;DHT22;10915;54.352;9.074;2023-03-23T08:23:38;13.30;99.90
21508;DHT22;10915;54.352;9.074;2023-03-23T08:26:05;13.40;99.90
21508;DHT22;10915;54.352;9.074;2023-03-23T08:28:33;13.20;99.90
21508;DHT22;10915;54.352;9.074;2023-03-23T08:30:58;13.10;99.90
21508;DHT22;10915;54.352;9.074;2023-03-23T08:33:24;13.00;99.90
21508;DHT22;10915;54.352;9.074;2023-03-23T08:35:57;12.80;99.90
21508;DHT22;10915;54.352;9.074;2023-03-23T08:38:23;12.60;99.90
21508;DHT22;10915;54.352;9.074;2023-03-23T08:40:49;12.50;99.90
21508;DHT22;10915;54.352;9.074;2023-03-23T08:43:16;12.60;99.90
21508;DHT22;10915;54.352;9.074;2023-03-23T08:45:41;12.80;99.90
21508;DHT22;10915;54.352;9.074;2023-03-23T08:48:07;13.00;99.90
21508;DHT22;10915;54.352;9.074;2023-03-23T08:50:34;13.30;99.90
21508;DHT22;10915;54.352;9.074;2023-03-23T08:53:01;13.40;99.90
21508;DHT22;10915;54.352;9.074;2023-03-23T08:55:26;13.40;99.90
21508;DHT22;10915;54.352;9.074;2023-03-23T08:57:53;13.20;99.90
21508;DHT22;10915;54.352;9.074;2023-03-23T09:00:20;13.10;99.90
21508;DHT22;10915;54.352;9.074;2023-03-23T09:02:52;13.10;99.90
21508;DHT22;10915;54.352;9.074;2023-03-23T09:05:21;13.20;99.90
21508;DHT22;10915;54.352;9.074;2023-03-23T09:07:49;13.30;99.90
21508;DHT22;10915;54.352;9.074;2023-03-23T09:10:16;13.20;99.90
21508;DHT22;10915;54.352;9.074;2023-03-23T09:12:43;13.10;99.90
21508;DHT22;10915;54.352;9.074;2023-03-23T09:15:10;13.20;99.90
21508;DHT22;10915;54.352;9.074;2023-03-23T09:17:38;13.30;99.90
21508;DHT22;10915;54.352;9.074;2023-03-23T09:20:05;13.50;99.90
21508;DHT22;10915;54.352;9.074;2023-03-23T09:22:36;13.60;99.90
21508;DHT22;10915;54.352;9.074;2023-03-23T09:25:02;13.70;99.90
21508;DHT22;10915;54.352;9.074;2023-03-23T09:27:28;13.80;99.90
21508;DHT22;10915;54.352;9.074;2023-03-23T09:29:54;13.90;99.90
21508;DHT22;10915;54.352;9.074;2023-03-23T09:32:21;13.90;99.90
21508;DHT22;10915;54.352;9.074;2023-03-23T09:34:48;13.90;99.90
21508;DHT22;10915;54.352;9.074;2023-03-23T09:37:14;14.10;99.90
21508;DHT22;10915;54.352;9.074;2023-03-23T09:39:39;14.40;99.90
21508;DHT22;10915;54.352;9.074;2023-03-23T09:50:02;14.50;99.90
21508;DHT22;10915;54.352;9.074;2023-03-23T09:55:13;14.60;99.90
21508;DHT22;10915;54.352;9.074;2023-03-23T09:57:59;14.50;99.90
21508;DHT22;10915;54.352;9.074;2023-03-23T10:00:35;14.40;99.90
21508;DHT22;10915;54.352;9.074;2023-03-23T10:03:06;14.20;99.90
21508;DHT22;10915;54.352;9.074;2023-03-23T10:05:37;14.00;99.90
21508;DHT22;10915;54.352;9.074;2023-03-23T10:08:14;13.70;99.90
21508;DHT22;10915;54.352;9.074;2023-03-23T10:10:52;13.50;99.90
21508;DHT22;10915;54.352;9.074;2023-03-23T10:16:51;13.50;99.90
21508;DHT22;10915;54.352;9.074;2023-03-23T10:19:29;13.30;99.90
21508;DHT22;10915;54.352;9.074;2023-03-23T10:22:10;13.30;99.90
21508;DHT22;10915;54.352;9.074;2023-03-23T10:27:33;13.40;99.90
21508;DHT22;10915;54.352;9.074;2023-03-23T10:30:21;13.40;99.90
21508;DHT22;10915;54.352;9.074;2023-03-23T10:32:58;13.30;99.90
21508;DHT22;10915;54.352;9.074;2023-03-23T10:35:31;13.30;99.90
21508;DHT22;10915;54.352;9.074;2023-03-23T10:38:13;13.40;99.90
21508;DHT22;10915;54.352;9.074;2023-03-23T10:40:52;13.40;99.90
21508;DHT22;10915;54.352;9.074;2023-03-23T10:43:19;13.40;99.90
21508;DHT22;10915;54.352;9.074;2023-03-23T10:45:49;13.30;99.90
21508;DHT22;10915;54.352;9.074;2023-03-23T10:48:25;13.40;99.90
21508;DHT22;10915;54.352;9.074;2023-03-23T10:50:55;13.30;99.90
21508;DHT22;10915;54.352;9.074;2023-03-23T10:53:37;13.30;99.90
21508;DHT22;10915;54.352;9.074;2023-03-23T10:56:04;13.50;99.90
21508;DHT22;10915;54.352;9.074;2023-03-23T10:58:33;13.70;99.90
21508;DHT22;10915;54.352;9.074;2023-03-23T11:01:01;14.00;99.90
21508;DHT22;10915;54.352;9.074;2023-03-23T11:03:57;14.20;99.90
21508;DHT22;10915;54.352;9.074;2023-03-23T11:06:33;14.30;99.90
21508;DHT22;10915;54.352;9.074;2023-03-23T11:09:11;14.10;99.90
21508;DHT22;10915;54.352;9.074;2023-03-23T11:11:51;13.90;99.90
21508;DHT22;10915;54.352;9.074;2023-03-23T11:14:29;13.90;99.90
21508;DHT22;10915;54.352;9.074;2023-03-23T11:16:56;13.90;99.90
21508;DHT22;10915;54.352;9.074;2023-03-23T11:19:25;14.10;99.90
21508;DHT22;10915;54.352;9.074;2023-03-23T11:21:54;14.20;99.90
21508;DHT22;10915;54.352;9.074;2023-03-23T11:24:26;14.20;99.90
21508;DHT22;10915;54.352;9.074;2023-03-23T11:26:52;14.30;99.90
21508;DHT22;10915;54.352;9.074;2023-03-23T11:29:22;14.30;99.90
21508;DHT22;10915;54.352;9.074;2023-03-23T11:32:11;14.30;99.90
21508;DHT22;10915;54.352;9.074;2023-03-23T11:34:54;14.20;99.90
21508;DHT22;10915;54.352;9.074;2023-03-23T11:37:27;14.00;99.90
21508;DHT22;10915;54.352;9.074;2023-03-23T11:40:16;14.00;99.90
21508;DHT22;10915;54.352;9.074;2023-03-23T11:45:38;13.90;99.90
21508;DHT22;10915;54.352;9.074;2023-03-23T11:51:15;13.80;99.90
21508;DHT22;10915;54.352;9.074;2023-03-23T11:56:37;13.80;99.90
21508;DHT22;10915;54.352;9.074;2023-03-23T11:59:13;13.80;99.90
21508;DHT22;10915;54.352;9.074;2023-03-23T12:12:36;14.30;99.90
21508;DHT22;10915;54.352;9.074;2023-03-23T12:26:28;13.80;99.90
21508;DHT22;10915;54.352;9.074;2023-03-23T12:32:08;13.80;99.90
21508;DHT22;10915;54.352;9.074;2023-03-23T12:34:50;13.80;99.90
21508;DHT22;10915;54.352;9.074;2023-03-23T12:37:31;13.80;99.90
21508;DHT22;10915;54.352;9.074;2023-03-23T12:40:19;13.90;99.90
21508;DHT22;10915;54.352;9.074;2023-03-23T12:50:32;13.80;99.90
21508;DHT22;10915;54.352;9.074;2023-03-23T12:53:10;13.80;99.90
21508;DHT22;10915;54.352;9.074;2023-03-23T12:56:02;13.60;99.90
21508;DHT22;10915;54.352;9.074;2023-03-23T12:58:33;13.60;99.90
21508;DHT22;10915;54.352;9.074;2023-03-23T13:01:10;13.70;99.90
21508;DHT22;10915;54.352;9.074;2023-03-23T13:03:46;13.70;99.90
21508;DHT22;10915;54.352;9.074;2023-03-23T13:08:48;13.70;99.90
21508;DHT22;10915;54.352;9.074;2023-03-23T13:11:22;13.70;99.90
21508;DHT22;10915;54.352;9.074;2023-03-23T13:13:51;13.80;99.90
21508;DHT22;10915;54.352;9.074;2023-03-23T13:16:37;13.90;99.90
21508;DHT22;10915;54.352;9.074;2023-03-23T13:21:50;13.90;99.90
21508;DHT22;10915;54.352;9.074;2023-03-23T13:24:21;13.90;99.90
21508;DHT22;10915;54.352;9.074;2023-03-23T13:26:49;13.80;99.90
21508;DHT22;10915;54.352;9.074;2023-03-23T13:29:19;13.90;99.90
21508;DHT22;10915;54.352;9.074;2023-03-23T13:31:46;13.90;99.90
21508;DHT22;10915;54.352;9.074;2023-03-23T13:34:19;13.90;99.90
21508;DHT22;10915;54.352;9.074;2023-03-23T13:37:03;13.80;99.90
21508;DHT22;10915;54.352;9.074;2023-03-23T13:39:33;13.80;99.90
21508;DHT22;10915;54.352;9.074;2023-03-23T13:44:26;13.80;99.90
21508;DHT22;10915;54.352;9.074;2023-03-23T14:02:51;13.60;99.90
21508;DHT22;10915;54.352;9.074;2023-03-23T14:07:54;13.70;99.90
21508;DHT22;10915;54.352;9.074;2023-03-23T14:10:20;13.70;99.90
21508;DHT22;10915;54.352;9.074;2023-03-23T14:12:50;13.70;99.90
21508;DHT22;10915;54.352;9.074;2023-03-23T14:15:18;13.70;99.90
21508;DHT22;10915;54.352;9.074;2023-03-23T14:17:44;13.70;99.90
21508;DHT22;10915;54.352;9.074;2023-03-23T14:20:25;13.60;99.90
21508;DHT22;10915;54.352;9.074;2023-03-23T14:22:55;13.60;99.90
21508;DHT22;10915;54.352;9.074;2023-03-23T14:25:22;13.70;99.90
21508;DHT22;10915;54.352;9.074;2023-03-23T14:27:51;13.80;99.90
21508;DHT22;10915;54.352;9.074;2023-03-23T14:30:20;13.90;99.90
21508;DHT22;10915;54.352;9.074;2023-03-23T14:32:47;13.80;99.90
21508;DHT22;10915;54.352;9.074;2023-03-23T14:35:23;13.80;99.90
21508;DHT22;10915;54.352;9.074;2023-03-23T14:37:50;13.80;99.90
21508;DHT22;10915;54.352;9.074;2023-03-23T14:40:18;13.80;99.90
21508;DHT22;10915;54.352;9.074;2023-03-23T14:42:44;13.80;99.90
21508;DHT22;10915;54.352;9.074;2023-03-23T14:45:14;13.80;99.90
21508;DHT22;10915;54.352;9.074;2023-03-23T14:47:47;13.80;99.90
21508;DHT22;10915;54.352;9.074;2023-03-23T14:50:38;13.70;99.90
21508;DHT22;10915;54.352;9.074;2023-03-23T14:53:24;13.70;99.90
21508;DHT22;10915;54.352;9.074;2023-03-23T14:55:53;13.70;99.90
21508;DHT22;10915;54.352;9.074;2023-03-23T14:58:24;13.60;99.90
21508;DHT22;10915;54.352;9.074;2023-03-23T15:01:06;13.60;99.90
21508;DHT22;10915;54.352;9.074;2023-03-23T15:03:36;13.60;99.90
21508;DHT22;10915;54.352;9.074;2023-03-23T15:06:12;13.50;99.90
21508;DHT22;10915;54.352;9.074;2023-03-23T15:08:39;13.50;99.90
21508;DHT22;10915;54.352;9.074;2023-03-23T15:13:49;13.40;99.90
21508;DHT22;10915;54.352;9.074;2023-03-23T15:16:25;13.30;99.90
21508;DHT22;10915;54.352;9.074;2023-03-23T15:19:05;13.30;99.90
21508;DHT22;10915;54.352;9.074;2023-03-23T15:21:50;13.30;99.90
21508;DHT22;10915;54.352;9.074;2023-03-23T15:24:33;13.20;99.90
21508;DHT22;10915;54.352;9.074;2023-03-23T15:27:24;13.30;99.90
21508;DHT22;10915;54.352;9.074;2023-03-23T15:29:57;13.20;99.90
21508;DHT22;10915;54.352;9.074;2023-03-23T15:32:26;13.20;99.90
21508;DHT22;10915;54.352;9.074;2023-03-23T15:34:52;13.10;99.90
21508;DHT22;10915;54.352;9.074;2023-03-23T15:37:41;13.10;99.90
21508;DHT22;10915;54.352;9.074;2023-03-23T15:40:19;13.10;99.90
21508;DHT22;10915;54.352;9.074;2023-03-23T15:42:45;13.00;99.90
21508;DHT22;10915;54.352;9.074;2023-03-23T15:50:17;12.90;99.90
21508;DHT22;10915;54.352;9.074;2023-03-23T15:52:44;12.90;99.90
21508;DHT22;10915;54.352;9.074;2023-03-23T15:57:48;12.90;99.90
21508;DHT22;10915;54.352;9.074;2023-03-23T16:00:17;12.90;99.90
21508;DHT22;10915;54.352;9.074;2023-03-23T16:02:46;12.90;99.90
21508;DHT22;10915;54.352;9.074;2023-03-23T16:05:12;12.80;99.90
21508;DHT22;10915;54.352;9.074;2023-03-23T16:07:38;12.80;99.90
21508;DHT22;10915;54.352;9.074;2023-03-23T16:10:06;12.60;99.90
21508;DHT22;10915;54.352;9.074;2023-03-23T16:12:32;12.50;99.90
21508;DHT22;10915;54.352;9.074;2023-03-23T16:14:58;12.40;99.90
21508;DHT22;10915;54.352;9.074;2023-03-23T16:17:23;12.30;99.90
21508;DHT22;10915;54.352;9.074;2023-03-23T16:19:50;12.30;99.90
21508;DHT22;10915;54.352;9.074;2023-03-23T16:22:15;12.40;99.90
21508;DHT22;10915;54.352;9.074;2023-03-23T16:24:41;12.40;99.90
21508;DHT22;10915;54.352;9.074;2023-03-23T16:27:09;12.30;99.90
21508;DHT22;10915;54.352;9.074;2023-03-23T16:29:35;12.20;99.90
21508;DHT22;10915;54.352;9.074;2023-03-23T16:32:01;12.20;99.90
21508;DHT22;10915;54.352;9.074;2023-03-23T16:34:26;12.20;99.90
21508;DHT22;10915;54.352;9.074;2023-03-23T16:36:54;12.20;99.90
21508;DHT22;10915;54.352;9.074;2023-03-23T16:39:20;12.20;99.90
21508;DHT22;10915;54.352;9.074;2023-03-23T16:41:47;12.10;99.90
21508;DHT22;10915;54.352;9.074;2023-03-23T16:44:13;12.10;99.90
21508;DHT22;10915;54.352;9.074;2023-03-23T16:46:38;12.10;99.90
21508;DHT22;10915;54.352;9.074;2023-03-23T16:49:04;12.00;99.90
21508;DHT22;10915;54.352;9.074;2023-03-23T16:51:30;11.90;99.90
21508;DHT22;10915;54.352;9.074;2023-03-23T16:53:55;11.90;99.90
21508;DHT22;10915;54.352;9.074;2023-03-23T16:56:21;11.90;99.90
21508;DHT22;10915;54.352;9.074;2023-03-23T16:58:46;11.90;99.90
21508;DHT22;10915;54.352;9.074;2023-03-23T17:01:12;11.90;99.90
21508;DHT22;10915;54.352;9.074;2023-03-23T17:03:38;11.90;99.90
21508;DHT22;10915;54.352;9.074;2023-03-23T17:06:04;11.80;99.90
21508;DHT22;10915;54.352;9.074;2023-03-23T17:08:30;11.70;99.90
21508;DHT22;10915;54.352;9.074;2023-03-23T17:10:56;11.60;99.90
21508;DHT22;10915;54.352;9.074;2023-03-23T17:13:21;11.50;99.90
21508;DHT22;10915;54.352;9.074;2023-03-23T17:15:51;11.40;99.90
21508;DHT22;10915;54.352;9.074;2023-03-23T17:18:22;11.40;99.90
21508;DHT22;10915;54.352;9.074;2023-03-23T17:20:48;11.30;99.90
21508;DHT22;10915;54.352;9.074;2023-03-23T17:23:14;11.20;99.90
21508;DHT22;10915;54.352;9.074;2023-03-23T17:25:43;11.20;99.90
21508;DHT22;10915;54.352;9.074;2023-03-23T17:28:09;11.10;99.90
21508;DHT22;10915;54.352;9.074;2023-03-23T17:30:39;11.00;99.90
21508;DHT22;10915;54.352;9.074;2023-03-23T17:33:04;10.90;99.90
21508;DHT22;10915;54.352;9.074;2023-03-23T17:35:30;10.90;99.90
21508;DHT22;10915;54.352;9.074;2023-03-23T17:37:56;10.90;99.90
21508;DHT22;10915;54.352;9.074;2023-03-23T17:40:22;10.80;99.90
21508;DHT22;10915;54.352;9.074;2023-03-23T17:42:48;10.80;99.90
21508;DHT22;10915;54.352;9.074;2023-03-23T17:45:13;10.70;99.90